sensor_id;sensor_type;location;lat;lon;timestamp;temperature;humidity
20432;DHT22;10375;49.136;10.366;2023-07-13T00:01:54;20.60;90.90
20432;DHT22;10375;49.136;10.366;2023-07-13T00:04:23;20.60;91.10
20432;DHT22;10375;49.136;10.366;2023-07-13T00:06:53;20.60;91.10
20432;DHT22;10375;49.136;10.366;2023-07-13T00:09:20;20.50;91.20
20432;DHT22;10375;49.136;10.366;2023-07-13T00:11:55;20.40;91.30
20432;DHT22;10375;49.136;10.366;2023-07-13T00:14:23;20.40;91.30
20432;DHT22;10375;49.136;10.366;2023-07-13T00:16:51;20.40;91.20
20432;DHT22;10375;49.136;10.366;2023-07-13T00:19:18;20.30;91.10
20432;DHT22;10375;49.136;10.366;2023-07-13T00:21:46;20.20;91.40
20432;DHT22;10375;49.136;10.366;2023-07-13T00:24:16;20.20;91.40
20432;DHT22;10375;49.136;10.366;2023-07-13T00:26:49;20.20;91.60
20432;DHT22;10375;49.136;10.366;2023-07-13T00:29:16;20.10;91.60
20432;DHT22;10375;49.136;10.366;2023-07-13T00:31:43;20.00;91.60
20432;DHT22;10375;49.136;10.366;2023-07-13T00:34:11;20.00;91.90
20432;DHT22;10375;49.136;10.366;2023-07-13T00:36:38;20.00;91.80
20432;DHT22;10375;49.136;10.366;2023-07-13T00:39:06;20.00;91.70
20432;DHT22;10375;49.136;10.366;2023-07-13T00:41:33;19.90;91.60
20432;DHT22;10375;49.136;10.366;2023-07-13T00:44:00;19.90;91.50
20432;DHT22;10375;49.136;10.366;2023-07-13T00:46:30;19.80;91.50
20432;DHT22;10375;49.136;10.366;2023-07-13T00:49:01;19.90;91.50
20432;DHT22;10375;49.136;10.366;2023-07-13T00:51:56;19.80;91.50
20432;DHT22;10375;49.136;10.366;2023-07-13T00:54:29;19.80;91.80
20432;DHT22;10375;49.136;10.366;2023-07-13T00:57:02;19.70;91.70
20432;DHT22;10375;49.136;10.366;2023-07-13T00:59:31;19.70;91.70
20432;DHT22;10375;49.136;10.366;2023-07-13T01:01:58;19.70;91.90
20432;DHT22;10375;49.136;10.366;2023-07-13T01:04:25;19.60;92.00
20432;DHT22;10375;49.136;10.366;2023-07-13T01:06:53;19.50;91.80
20432;DHT22;10375;49.136;10.366;2023-07-13T01:09:21;19.50;92.00
20432;DHT22;10375;49.136;10.366;2023-07-13T01:11:48;19.40;92.10
20432;DHT22;10375;49.136;10.366;2023-07-13T01:14:16;19.40;92.00
20432;DHT22;10375;49.136;10.366;2023-07-13T01:16:46;19.30;92.10
20432;DHT22;10375;49.136;10.366;2023-07-13T01:19:44;19.30;92.10
20432;DHT22;10375;49.136;10.366;2023-07-13T01:22:18;19.30;92.20
20432;DHT22;10375;49.136;10.366;2023-07-13T01:24:47;19.20;92.00
20432;DHT22;10375;49.136;10.366;2023-07-13T01:27:16;19.20;92.10
20432;DHT22;10375;49.136;10.366;2023-07-13T01:29:44;19.10;92.20
20432;DHT22;10375;49.136;10.366;2023-07-13T01:32:17;19.10;92.30
20432;DHT22;10375;49.136;10.366;2023-07-13T01:34:48;19.10;92.50
20432;DHT22;10375;49.136;10.366;2023-07-13T01:37:16;19.00;92.30
20432;DHT22;10375;49.136;10.366;2023-07-13T01:39:43;19.00;92.40
20432;DHT22;10375;49.136;10.366;2023-07-13T01:42:10;19.00;92.50
20432;DHT22;10375;49.136;10.366;2023-07-13T01:44:37;18.90;92.50
20432;DHT22;10375;49.136;10.366;2023-07-13T01:47:05;18.90;92.60
20432;DHT22;10375;49.136;10.366;2023-07-13T01:49:32;18.90;92.70
20432;DHT22;10375;49.136;10.366;2023-07-13T01:51:59;18.80;92.70
20432;DHT22;10375;49.136;10.366;2023-07-13T01:54:26;18.70;92.70
20432;DHT22;10375;49.136;10.366;2023-07-13T01:56:54;18.70;92.80
20432;DHT22;10375;49.136;10.366;2023-07-13T01:59:21;18.70;92.80
20432;DHT22;10375;49.136;10.366;2023-07-13T02:01:48;18.70;92.90
20432;DHT22;10375;49.136;10.366;2023-07-13T02:04:15;18.70;92.80
20432;DHT22;10375;49.136;10.366;2023-07-13T02:06:42;18.70;92.50
20432;DHT22;10375;49.136;10.366;2023-07-13T02:09:09;18.60;92.40
20432;DHT22;10375;49.136;10.366;2023-07-13T02:11:36;18.60;92.40
20432;DHT22;10375;49.136;10.366;2023-07-13T02:14:04;18.60;92.20
20432;DHT22;10375;49.136;10.366;2023-07-13T02:16:31;18.50;92.00
20432;DHT22;10375;49.136;10.366;2023-07-13T02:18:58;18.60;92.10
20432;DHT22;10375;49.136;10.366;2023-07-13T02:21:25;18.50;91.90
20432;DHT22;10375;49.136;10.366;2023-07-13T02:23:52;18.50;92.00
20432;DHT22;10375;49.136;10.366;2023-07-13T02:26:20;18.50;91.80
20432;DHT22;10375;49.136;10.366;2023-07-13T02:28:47;18.50;91.80
20432;DHT22;10375;49.136;10.366;2023-07-13T02:31:15;18.50;91.70
20432;DHT22;10375;49.136;10.366;2023-07-13T02:33:43;18.40;91.60
20432;DHT22;10375;49.136;10.366;2023-07-13T02:36:10;18.40;91.50
20432;DHT22;10375;49.136;10.366;2023-07-13T02:38:38;18.40;91.60
20432;DHT22;10375;49.136;10.366;2023-07-13T02:41:06;18.30;91.60
20432;DHT22;10375;49.136;10.366;2023-07-13T02:43:34;18.30;91.80
20432;DHT22;10375;49.136;10.366;2023-07-13T02:46:02;18.20;91.80
20432;DHT22;10375;49.136;10.366;2023-07-13T02:48:39;18.20;92.00
20432;DHT22;10375;49.136;10.366;2023-07-13T02:51:07;18.10;92.10
20432;DHT22;10375;49.136;10.366;2023-07-13T02:53:35;18.10;92.30
20432;DHT22;10375;49.136;10.366;2023-07-13T02:56:04;18.00;92.40
20432;DHT22;10375;49.136;10.366;2023-07-13T02:58:31;18.00;92.60
20432;DHT22;10375;49.136;10.366;2023-07-13T03:00:58;17.90;92.80
20432;DHT22;10375;49.136;10.366;2023-07-13T03:03:26;17.90;92.60
20432;DHT22;10375;49.136;10.366;2023-07-13T03:05:59;17.90;92.90
20432;DHT22;10375;49.136;10.366;2023-07-13T03:08:26;17.70;93.00
20432;DHT22;10375;49.136;10.366;2023-07-13T03:11:09;17.70;93.10
20432;DHT22;10375;49.136;10.366;2023-07-13T03:13:39;17.70;93.30
20432;DHT22;10375;49.136;10.366;2023-07-13T03:16:07;17.60;93.40
20432;DHT22;10375;49.136;10.366;2023-07-13T03:18:35;17.60;93.40
20432;DHT22;10375;49.136;10.366;2023-07-13T03:21:04;17.60;93.30
20432;DHT22;10375;49.136;10.366;2023-07-13T03:23:31;17.60;93.20
20432;DHT22;10375;49.136;10.366;2023-07-13T03:26:18;17.50;93.40
20432;DHT22;10375;49.136;10.366;2023-07-13T03:28:45;17.50;93.60
20432;DHT22;10375;49.136;10.366;2023-07-13T03:31:20;17.50;93.60
20432;DHT22;10375;49.136;10.366;2023-07-13T03:33:48;17.50;93.60
20432;DHT22;10375;49.136;10.366;2023-07-13T03:36:18;17.50;93.70
20432;DHT22;10375;49.136;10.366;2023-07-13T03:38:50;17.50;93.80
20432;DHT22;10375;49.136;10.366;2023-07-13T03:41:18;17.40;93.70
20432;DHT22;10375;49.136;10.366;2023-07-13T03:43:45;17.50;93.80
20432;DHT22;10375;49.136;10.366;2023-07-13T03:46:15;17.50;93.70
20432;DHT22;10375;49.136;10.366;2023-07-13T03:48:44;17.50;93.80
20432;DHT22;10375;49.136;10.366;2023-07-13T03:51:13;17.40;93.90
20432;DHT22;10375;49.136;10.366;2023-07-13T03:53:43;17.50;94.00
20432;DHT22;10375;49.136;10.366;2023-07-13T03:56:10;17.50;94.20
20432;DHT22;10375;49.136;10.366;2023-07-13T03:58:39;17.50;94.40
20432;DHT22;10375;49.136;10.366;2023-07-13T04:01:09;17.50;94.30
20432;DHT22;10375;49.136;10.366;2023-07-13T04:03:36;17.50;94.30
20432;DHT22;10375;49.136;10.366;2023-07-13T04:06:06;17.40;94.30
20432;DHT22;10375;49.136;10.366;2023-07-13T04:08:35;17.40;94.40
20432;DHT22;10375;49.136;10.366;2023-07-13T04:11:04;17.50;94.40
20432;DHT22;10375;49.136;10.366;2023-07-13T04:13:31;17.50;94.40
20432;DHT22;10375;49.136;10.366;2023-07-13T04:15:59;17.50;94.50
20432;DHT22;10375;49.136;10.366;2023-07-13T04:18:26;17.60;94.40
20432;DHT22;10375;49.136;10.366;2023-07-13T04:20:53;17.80;94.20
20432;DHT22;10375;49.136;10.366;2023-07-13T04:23:20;17.80;93.90
20432;DHT22;10375;49.136;10.366;2023-07-13T04:25:49;17.90;94.00
20432;DHT22;10375;49.136;10.366;2023-07-13T04:28:21;18.00;93.90
20432;DHT22;10375;49.136;10.366;2023-07-13T04:30:49;18.10;93.60
20432;DHT22;10375;49.136;10.366;2023-07-13T04:33:17;18.20;93.30
20432;DHT22;10375;49.136;10.366;2023-07-13T04:35:44;18.30;93.20
20432;DHT22;10375;49.136;10.366;2023-07-13T04:38:13;18.30;93.00
20432;DHT22;10375;49.136;10.366;2023-07-13T04:40:45;18.30;92.80
20432;DHT22;10375;49.136;10.366;2023-07-13T04:43:12;18.30;92.80
20432;DHT22;10375;49.136;10.366;2023-07-13T04:45:39;18.30;92.70
20432;DHT22;10375;49.136;10.366;2023-07-13T04:48:06;18.30;92.50
20432;DHT22;10375;49.136;10.366;2023-07-13T04:50:36;18.30;92.60
20432;DHT22;10375;49.136;10.366;2023-07-13T04:53:04;18.30;92.60
20432;DHT22;10375;49.136;10.366;2023-07-13T04:55:31;18.40;92.40
20432;DHT22;10375;49.136;10.366;2023-07-13T04:57:59;18.60;92.50
20432;DHT22;10375;49.136;10.366;2023-07-13T05:00:26;18.80;92.30
20432;DHT22;10375;49.136;10.366;2023-07-13T05:02:57;19.20;91.50
20432;DHT22;10375;49.136;10.366;2023-07-13T05:05:26;19.50;90.90
20432;DHT22;10375;49.136;10.366;2023-07-13T05:07:54;19.90;90.50
20432;DHT22;10375;49.136;10.366;2023-07-13T05:10:21;20.20;89.90
20432;DHT22;10375;49.136;10.366;2023-07-13T05:12:49;20.50;89.10
20432;DHT22;10375;49.136;10.366;2023-07-13T05:15:17;20.70;88.10
20432;DHT22;10375;49.136;10.366;2023-07-13T05:17:48;20.80;85.80
20432;DHT22;10375;49.136;10.366;2023-07-13T05:20:17;20.90;85.30
20432;DHT22;10375;49.136;10.366;2023-07-13T05:22:45;21.20;85.20
20432;DHT22;10375;49.136;10.366;2023-07-13T05:25:15;22.10;83.00
20432;DHT22;10375;49.136;10.366;2023-07-13T05:27:43;22.70;80.30
20432;DHT22;10375;49.136;10.366;2023-07-13T05:30:12;22.60;79.20
20432;DHT22;10375;49.136;10.366;2023-07-13T05:32:40;22.20;79.80
20432;DHT22;10375;49.136;10.366;2023-07-13T05:35:08;21.70;80.60
20432;DHT22;10375;49.136;10.366;2023-07-13T05:37:37;21.30;82.30
20432;DHT22;10375;49.136;10.366;2023-07-13T05:40:05;20.90;83.30
20432;DHT22;10375;49.136;10.366;2023-07-13T05:42:32;20.80;84.30
20432;DHT22;10375;49.136;10.366;2023-07-13T05:44:59;20.90;84.80
20432;DHT22;10375;49.136;10.366;2023-07-13T05:47:26;21.30;83.80
20432;DHT22;10375;49.136;10.366;2023-07-13T05:49:53;22.10;82.60
20432;DHT22;10375;49.136;10.366;2023-07-13T05:52:21;23.40;77.80
20432;DHT22;10375;49.136;10.366;2023-07-13T05:54:48;24.40;74.80
20432;DHT22;10375;49.136;10.366;2023-07-13T05:57:15;25.00;71.50
20432;DHT22;10375;49.136;10.366;2023-07-13T05:59:42;24.70;71.80
20432;DHT22;10375;49.136;10.366;2023-07-13T06:02:09;25.10;72.50
20432;DHT22;10375;49.136;10.366;2023-07-13T06:04:37;25.70;69.60
20432;DHT22;10375;49.136;10.366;2023-07-13T06:07:04;24.80;70.30
20432;DHT22;10375;49.136;10.366;2023-07-13T06:09:32;23.80;73.00
20432;DHT22;10375;49.136;10.366;2023-07-13T06:11:59;23.00;75.80
20432;DHT22;10375;49.136;10.366;2023-07-13T06:14:26;22.60;77.30
20432;DHT22;10375;49.136;10.366;2023-07-13T06:16:53;22.60;78.20
20432;DHT22;10375;49.136;10.366;2023-07-13T06:19:21;22.50;77.80
20432;DHT22;10375;49.136;10.366;2023-07-13T06:21:48;22.30;77.50
20432;DHT22;10375;49.136;10.366;2023-07-13T06:24:15;22.10;78.40
20432;DHT22;10375;49.136;10.366;2023-07-13T06:26:42;22.10;78.60
20432;DHT22;10375;49.136;10.366;2023-07-13T06:29:09;22.10;78.70
20432;DHT22;10375;49.136;10.366;2023-07-13T06:31:36;21.90;78.30
20432;DHT22;10375;49.136;10.366;2023-07-13T06:34:04;22.00;79.60
20432;DHT22;10375;49.136;10.366;2023-07-13T06:36:31;23.00;76.50
20432;DHT22;10375;49.136;10.366;2023-07-13T06:38:58;26.00;70.70
20432;DHT22;10375;49.136;10.366;2023-07-13T06:41:25;28.10;64.80
20432;DHT22;10375;49.136;10.366;2023-07-13T06:43:53;28.00;63.10
20432;DHT22;10375;49.136;10.366;2023-07-13T06:46:22;27.10;63.80
20432;DHT22;10375;49.136;10.366;2023-07-13T06:48:50;26.10;65.40
20432;DHT22;10375;49.136;10.366;2023-07-13T06:51:17;25.40;67.70
20432;DHT22;10375;49.136;10.366;2023-07-13T06:53:44;26.60;66.90
20432;DHT22;10375;49.136;10.366;2023-07-13T06:56:11;29.10;63.10
20432;DHT22;10375;49.136;10.366;2023-07-13T06:58:39;31.60;58.10
20432;DHT22;10375;49.136;10.366;2023-07-13T07:01:06;30.90;56.20
20432;DHT22;10375;49.136;10.366;2023-07-13T07:03:34;28.90;58.40
20432;DHT22;10375;49.136;10.366;2023-07-13T07:06:11;27.30;61.80
20432;DHT22;10375;49.136;10.366;2023-07-13T07:08:39;26.40;64.30
20432;DHT22;10375;49.136;10.366;2023-07-13T07:11:11;25.60;66.40
20432;DHT22;10375;49.136;10.366;2023-07-13T07:13:38;26.00;66.40
20432;DHT22;10375;49.136;10.366;2023-07-13T07:16:06;26.70;65.00
20432;DHT22;10375;49.136;10.366;2023-07-13T07:18:33;26.50;64.30
20432;DHT22;10375;49.136;10.366;2023-07-13T07:21:00;26.50;66.60
20432;DHT22;10375;49.136;10.366;2023-07-13T07:23:28;28.70;63.90
20432;DHT22;10375;49.136;10.366;2023-07-13T07:25:55;31.40;58.70
20432;DHT22;10375;49.136;10.366;2023-07-13T07:28:22;33.20;55.70
20432;DHT22;10375;49.136;10.366;2023-07-13T07:30:57;34.20;53.50
20432;DHT22;10375;49.136;10.366;2023-07-13T07:33:27;35.00;52.10
20432;DHT22;10375;49.136;10.366;2023-07-13T07:35:54;35.50;51.20
20432;DHT22;10375;49.136;10.366;2023-07-13T07:38:24;36.00;50.20
20432;DHT22;10375;49.136;10.366;2023-07-13T07:40:52;36.10;48.90
20432;DHT22;10375;49.136;10.366;2023-07-13T07:43:22;36.40;48.70
20432;DHT22;10375;49.136;10.366;2023-07-13T07:45:49;38.60;46.20
20432;DHT22;10375;49.136;10.366;2023-07-13T07:48:16;40.30;44.40
20432;DHT22;10375;49.136;10.366;2023-07-13T07:50:43;40.40;42.70
20432;DHT22;10375;49.136;10.366;2023-07-13T07:53:10;38.80;43.30
20432;DHT22;10375;49.136;10.366;2023-07-13T07:55:38;37.10;44.30
20432;DHT22;10375;49.136;10.366;2023-07-13T07:58:08;35.70;45.60
20432;DHT22;10375;49.136;10.366;2023-07-13T08:01:05;34.50;45.90
20432;DHT22;10375;49.136;10.366;2023-07-13T08:03:35;33.30;48.00
20432;DHT22;10375;49.136;10.366;2023-07-13T08:06:05;32.50;49.40
20432;DHT22;10375;49.136;10.366;2023-07-13T08:08:35;32.10;49.20
20432;DHT22;10375;49.136;10.366;2023-07-13T08:11:04;31.70;50.00
20432;DHT22;10375;49.136;10.366;2023-07-13T08:13:51;31.50;50.80
20432;DHT22;10375;49.136;10.366;2023-07-13T08:16:22;31.30;51.50
20432;DHT22;10375;49.136;10.366;2023-07-13T08:18:49;31.10;51.20
20432;DHT22;10375;49.136;10.366;2023-07-13T08:21:16;31.00;51.90
20432;DHT22;10375;49.136;10.366;2023-07-13T08:23:46;31.00;50.20
20432;DHT22;10375;49.136;10.366;2023-07-13T08:26:13;31.00;50.30
20432;DHT22;10375;49.136;10.366;2023-07-13T08:28:41;31.00;50.50
20432;DHT22;10375;49.136;10.366;2023-07-13T08:31:09;31.00;49.40
20432;DHT22;10375;49.136;10.366;2023-07-13T08:33:38;30.70;50.80
20432;DHT22;10375;49.136;10.366;2023-07-13T08:36:05;30.50;50.10
20432;DHT22;10375;49.136;10.366;2023-07-13T08:38:33;30.70;50.20
20432;DHT22;10375;49.136;10.366;2023-07-13T08:41:09;31.00;50.70
20432;DHT22;10375;49.136;10.366;2023-07-13T08:43:38;31.00;50.50
20432;DHT22;10375;49.136;10.366;2023-07-13T08:48:53;31.30;48.10
20432;DHT22;10375;49.136;10.366;2023-07-13T08:51:30;31.30;48.30
20432;DHT22;10375;49.136;10.366;2023-07-13T08:54:02;31.30;47.20
20432;DHT22;10375;49.136;10.366;2023-07-13T08:56:31;31.10;47.10
20432;DHT22;10375;49.136;10.366;2023-07-13T08:59:04;31.00;47.40
20432;DHT22;10375;49.136;10.366;2023-07-13T09:04:27;31.10;48.20
20432;DHT22;10375;49.136;10.366;2023-07-13T09:09:48;31.10;47.10
20432;DHT22;10375;49.136;10.366;2023-07-13T09:12:40;31.00;47.70
20432;DHT22;10375;49.136;10.366;2023-07-13T09:15:39;31.00;47.20
20432;DHT22;10375;49.136;10.366;2023-07-13T09:18:28;30.90;46.30
20432;DHT22;10375;49.136;10.366;2023-07-13T09:21:14;30.90;47.60
20432;DHT22;10375;49.136;10.366;2023-07-13T09:23:42;31.10;47.40
20432;DHT22;10375;49.136;10.366;2023-07-13T09:26:19;30.80;46.20
20432;DHT22;10375;49.136;10.366;2023-07-13T09:29:03;30.10;46.90
20432;DHT22;10375;49.136;10.366;2023-07-13T09:31:42;29.90;47.70
20432;DHT22;10375;49.136;10.366;2023-07-13T09:34:11;29.90;47.90
20432;DHT22;10375;49.136;10.366;2023-07-13T09:36:39;29.70;48.20
20432;DHT22;10375;49.136;10.366;2023-07-13T09:39:31;29.50;48.20
20432;DHT22;10375;49.136;10.366;2023-07-13T09:45:02;29.80;48.20
20432;DHT22;10375;49.136;10.366;2023-07-13T09:47:33;30.10;48.50
20432;DHT22;10375;49.136;10.366;2023-07-13T09:50:14;30.50;48.50
20432;DHT22;10375;49.136;10.366;2023-07-13T09:52:46;30.80;47.40
20432;DHT22;10375;49.136;10.366;2023-07-13T09:57:52;30.70;47.70
20432;DHT22;10375;49.136;10.366;2023-07-13T10:00:25;30.40;47.50
20432;DHT22;10375;49.136;10.366;2023-07-13T10:03:19;29.70;47.40
20432;DHT22;10375;49.136;10.366;2023-07-13T10:05:49;29.40;49.10
20432;DHT22;10375;49.136;10.366;2023-07-13T10:08:27;29.70;48.70
20432;DHT22;10375;49.136;10.366;2023-07-13T10:10:59;30.00;47.70
20432;DHT22;10375;49.136;10.366;2023-07-13T10:13:36;30.30;47.70
20432;DHT22;10375;49.136;10.366;2023-07-13T10:16:05;30.40;46.60
20432;DHT22;10375;49.136;10.366;2023-07-13T10:18:48;30.60;47.70
20432;DHT22;10375;49.136;10.366;2023-07-13T10:21:21;30.80;46.70
20432;DHT22;10375;49.136;10.366;2023-07-13T10:23:54;31.20;47.50
20432;DHT22;10375;49.136;10.366;2023-07-13T10:26:26;31.60;45.60
20432;DHT22;10375;49.136;10.366;2023-07-13T10:28:57;31.90;45.70
20432;DHT22;10375;49.136;10.366;2023-07-13T10:31:26;32.00;45.90
20432;DHT22;10375;49.136;10.366;2023-07-13T10:33:53;32.10;44.40
20432;DHT22;10375;49.136;10.366;2023-07-13T10:39:26;31.00;47.40
20432;DHT22;10375;49.136;10.366;2023-07-13T10:42:00;30.80;46.10
20432;DHT22;10375;49.136;10.366;2023-07-13T10:44:30;30.70;46.50
20432;DHT22;10375;49.136;10.366;2023-07-13T10:47:07;30.60;46.40
20432;DHT22;10375;49.136;10.366;2023-07-13T10:49:36;30.30;47.00
20432;DHT22;10375;49.136;10.366;2023-07-13T10:52:04;29.60;47.60
20432;DHT22;10375;49.136;10.366;2023-07-13T10:54:34;29.40;47.90
20432;DHT22;10375;49.136;10.366;2023-07-13T10:57:19;29.20;47.30
20432;DHT22;10375;49.136;10.366;2023-07-13T11:00:19;29.40;46.70
20432;DHT22;10375;49.136;10.366;2023-07-13T11:02:57;29.80;46.50
20432;DHT22;10375;49.136;10.366;2023-07-13T11:05:32;30.30;44.20
20432;DHT22;10375;49.136;10.366;2023-07-13T11:08:32;30.50;45.90
20432;DHT22;10375;49.136;10.366;2023-07-13T11:10:59;30.50;45.00
20432;DHT22;10375;49.136;10.366;2023-07-13T11:21:26;29.70;47.50
20432;DHT22;10375;49.136;10.366;2023-07-13T11:32:00;30.00;47.20
20432;DHT22;10375;49.136;10.366;2023-07-13T11:34:35;29.60;47.50
20432;DHT22;10375;49.136;10.366;2023-07-13T11:37:03;30.10;47.50
20432;DHT22;10375;49.136;10.366;2023-07-13T11:39:35;30.70;46.40
20432;DHT22;10375;49.136;10.366;2023-07-13T11:42:16;31.30;47.00
20432;DHT22;10375;49.136;10.366;2023-07-13T11:44:48;31.70;46.00
20432;DHT22;10375;49.136;10.366;2023-07-13T11:47:33;31.60;45.40
20432;DHT22;10375;49.136;10.366;2023-07-13T11:50:01;30.80;45.40
20432;DHT22;10375;49.136;10.366;2023-07-13T11:52:36;30.40;48.10
20432;DHT22;10375;49.136;10.366;2023-07-13T11:55:14;30.20;48.00
20432;DHT22;10375;49.136;10.366;2023-07-13T11:57:56;30.40;48.20
20432;DHT22;10375;49.136;10.366;2023-07-13T12:00:29;30.70;47.80
20432;DHT22;10375;49.136;10.366;2023-07-13T12:03:02;30.70;45.00
20432;DHT22;10375;49.136;10.366;2023-07-13T12:05:31;29.80;46.80
20432;DHT22;10375;49.136;10.366;2023-07-13T12:07:59;29.90;49.20
20432;DHT22;10375;49.136;10.366;2023-07-13T12:10:35;30.00;48.50
20432;DHT22;10375;49.136;10.366;2023-07-13T12:13:04;30.10;47.90
20432;DHT22;10375;49.136;10.366;2023-07-13T12:15:43;30.10;47.30
20432;DHT22;10375;49.136;10.366;2023-07-13T12:18:22;30.40;49.60
20432;DHT22;10375;49.136;10.366;2023-07-13T12:20:51;30.50;47.50
20432;DHT22;10375;49.136;10.366;2023-07-13T12:23:33;30.40;47.80
20432;DHT22;10375;49.136;10.366;2023-07-13T12:26:05;30.40;47.50
20432;DHT22;10375;49.136;10.366;2023-07-13T12:28:47;30.60;46.80
20432;DHT22;10375;49.136;10.366;2023-07-13T12:31:29;30.90;47.40
20432;DHT22;10375;49.136;10.366;2023-07-13T12:34:06;31.00;46.90
20432;DHT22;10375;49.136;10.366;2023-07-13T12:36:36;31.20;46.40
20432;DHT22;10375;49.136;10.366;2023-07-13T12:39:28;31.60;46.90
20432;DHT22;10375;49.136;10.366;2023-07-13T12:44:48;32.00;44.80
20432;DHT22;10375;49.136;10.366;2023-07-13T12:47:15;32.10;44.90
20432;DHT22;10375;49.136;10.366;2023-07-13T12:49:49;32.10;45.40
20432;DHT22;10375;49.136;10.366;2023-07-13T12:52:22;32.10;44.30
20432;DHT22;10375;49.136;10.366;2023-07-13T12:55:11;32.10;44.80
20432;DHT22;10375;49.136;10.366;2023-07-13T12:57:49;32.20;46.30
20432;DHT22;10375;49.136;10.366;2023-07-13T13:02:53;31.80;44.70
20432;DHT22;10375;49.136;10.366;2023-07-13T13:05:41;31.80;43.70
20432;DHT22;10375;49.136;10.366;2023-07-13T13:08:11;32.00;43.90
20432;DHT22;10375;49.136;10.366;2023-07-13T13:10:38;31.80;45.40
20432;DHT22;10375;49.136;10.366;2023-07-13T13:13:06;31.80;43.70
20432;DHT22;10375;49.136;10.366;2023-07-13T13:15:33;31.60;44.50
20432;DHT22;10375;49.136;10.366;2023-07-13T13:18:00;30.50;44.40
20432;DHT22;10375;49.136;10.366;2023-07-13T13:20:27;29.50;46.40
20432;DHT22;10375;49.136;10.366;2023-07-13T13:22:54;29.00;48.50
20432;DHT22;10375;49.136;10.366;2023-07-13T13:25:22;29.20;48.40
20432;DHT22;10375;49.136;10.366;2023-07-13T13:27:49;29.90;49.00
20432;DHT22;10375;49.136;10.366;2023-07-13T13:30:17;30.50;47.50
20432;DHT22;10375;49.136;10.366;2023-07-13T13:32:47;30.90;46.10
20432;DHT22;10375;49.136;10.366;2023-07-13T13:35:16;31.20;46.90
20432;DHT22;10375;49.136;10.366;2023-07-13T13:37:45;31.40;46.10
20432;DHT22;10375;49.136;10.366;2023-07-13T13:40:17;31.00;46.40
20432;DHT22;10375;49.136;10.366;2023-07-13T13:42:45;30.30;46.80
20432;DHT22;10375;49.136;10.366;2023-07-13T13:45:13;29.80;47.70
20432;DHT22;10375;49.136;10.366;2023-07-13T13:47:40;30.00;46.90
20432;DHT22;10375;49.136;10.366;2023-07-13T13:50:21;30.30;47.90
20432;DHT22;10375;49.136;10.366;2023-07-13T13:52:51;30.80;46.20
20432;DHT22;10375;49.136;10.366;2023-07-13T13:55:20;31.20;45.70
20432;DHT22;10375;49.136;10.366;2023-07-13T13:57:48;31.20;45.90
20432;DHT22;10375;49.136;10.366;2023-07-13T14:00:16;31.00;45.20
20432;DHT22;10375;49.136;10.366;2023-07-13T14:02:48;30.90;45.80
20432;DHT22;10375;49.136;10.366;2023-07-13T14:05:25;30.90;46.10
20432;DHT22;10375;49.136;10.366;2023-07-13T14:07:57;30.70;47.20
20432;DHT22;10375;49.136;10.366;2023-07-13T14:10:25;30.60;47.10
20432;DHT22;10375;49.136;10.366;2023-07-13T14:12:53;30.90;46.40
20432;DHT22;10375;49.136;10.366;2023-07-13T14:15:24;30.80;45.20
20432;DHT22;10375;49.136;10.366;2023-07-13T14:17:52;30.70;45.20
20432;DHT22;10375;49.136;10.366;2023-07-13T14:20:23;30.30;45.60
20432;DHT22;10375;49.136;10.366;2023-07-13T14:22:52;30.00;47.80
20432;DHT22;10375;49.136;10.366;2023-07-13T14:25:20;30.40;46.80
20432;DHT22;10375;49.136;10.366;2023-07-13T14:27:52;30.70;47.60
20432;DHT22;10375;49.136;10.366;2023-07-13T14:30:21;30.60;45.90
20432;DHT22;10375;49.136;10.366;2023-07-13T14:32:48;30.00;46.40
20432;DHT22;10375;49.136;10.366;2023-07-13T14:35:21;29.40;46.10
20432;DHT22;10375;49.136;10.366;2023-07-13T14:37:50;29.20;48.10
20432;DHT22;10375;49.136;10.366;2023-07-13T14:40:24;29.40;47.70
20432;DHT22;10375;49.136;10.366;2023-07-13T14:42:52;29.80;48.20
20432;DHT22;10375;49.136;10.366;2023-07-13T14:45:20;30.10;48.20
20432;DHT22;10375;49.136;10.366;2023-07-13T14:47:47;30.30;45.90
20432;DHT22;10375;49.136;10.366;2023-07-13T14:50:20;30.40;45.10
20432;DHT22;10375;49.136;10.366;2023-07-13T14:52:48;30.20;45.90
20432;DHT22;10375;49.136;10.366;2023-07-13T14:55:19;29.60;46.50
20432;DHT22;10375;49.136;10.366;2023-07-13T14:57:46;29.40;47.70
20432;DHT22;10375;49.136;10.366;2023-07-13T15:00:21;29.40;46.70
20432;DHT22;10375;49.136;10.366;2023-07-13T15:02:54;29.60;48.40
20432;DHT22;10375;49.136;10.366;2023-07-13T15:05:25;29.90;47.40
20432;DHT22;10375;49.136;10.366;2023-07-13T15:07:53;30.10;45.90
20432;DHT22;10375;49.136;10.366;2023-07-13T15:10:23;29.90;45.20
20432;DHT22;10375;49.136;10.366;2023-07-13T15:12:52;29.40;47.00
20432;DHT22;10375;49.136;10.366;2023-07-13T15:15:20;28.80;46.80
20432;DHT22;10375;49.136;10.366;2023-07-13T15:17:47;28.60;47.90
20432;DHT22;10375;49.136;10.366;2023-07-13T15:20:31;28.70;47.60
20432;DHT22;10375;49.136;10.366;2023-07-13T15:23:00;29.00;48.10
20432;DHT22;10375;49.136;10.366;2023-07-13T15:25:30;29.20;47.80
20432;DHT22;10375;49.136;10.366;2023-07-13T15:27:58;29.30;47.20
20432;DHT22;10375;49.136;10.366;2023-07-13T15:30:28;29.10;47.10
20432;DHT22;10375;49.136;10.366;2023-07-13T15:32:58;28.80;48.10
20432;DHT22;10375;49.136;10.366;2023-07-13T15:35:29;28.60;48.60
20432;DHT22;10375;49.136;10.366;2023-07-13T15:37:57;28.60;48.20
20432;DHT22;10375;49.136;10.366;2023-07-13T15:40:24;28.50;47.50
20432;DHT22;10375;49.136;10.366;2023-07-13T15:42:52;28.30;48.00
20432;DHT22;10375;49.136;10.366;2023-07-13T15:45:23;28.20;48.50
20432;DHT22;10375;49.136;10.366;2023-07-13T15:47:54;28.20;49.50
20432;DHT22;10375;49.136;10.366;2023-07-13T15:50:23;28.30;48.90
20432;DHT22;10375;49.136;10.366;2023-07-13T15:52:55;28.30;48.90
20432;DHT22;10375;49.136;10.366;2023-07-13T15:55:25;28.30;49.00
20432;DHT22;10375;49.136;10.366;2023-07-13T15:57:52;28.20;48.70
20432;DHT22;10375;49.136;10.366;2023-07-13T16:00:25;27.80;49.10
20432;DHT22;10375;49.136;10.366;2023-07-13T16:02:53;27.40;50.40
20432;DHT22;10375;49.136;10.366;2023-07-13T16:05:23;27.10;51.00
20432;DHT22;10375;49.136;10.366;2023-07-13T16:07:52;26.80;50.90
20432;DHT22;10375;49.136;10.366;2023-07-13T16:10:31;26.80;50.00
20432;DHT22;10375;49.136;10.366;2023-07-13T16:12:59;26.70;50.40
20432;DHT22;10375;49.136;10.366;2023-07-13T16:15:26;26.60;51.60